sensor_id;sensor_type;location;lat;lon;timestamp;pressure;altitude;pressure_sealevel;temperature;humidity
59513;BME280;45330;51.634;5.562;2023-07-08T00:00:19;101571.91;;;19.51;71.19
59513;BME280;45330;51.634;5.562;2023-07-08T00:02:44;101551.00;;;19.43;70.28
59513;BME280;45330;51.634;5.562;2023-07-08T00:05:12;101571.81;;;19.54;70.04
59513;BME280;45330;51.634;5.562;2023-07-08T00:07:38;101557.97;;;19.46;70.32
59513;BME280;45330;51.634;5.562;2023-07-08T00:10:25;101536.28;;;19.36;70.37
59513;BME280;45330;51.634;5.562;2023-07-08T00:12:52;101557.06;;;19.47;70.19
59513;BME280;45330;51.634;5.562;2023-07-08T00:15:24;101539.88;;;19.33;70.48
59513;BME280;45330;51.634;5.562;2023-07-08T00:17:50;101557.34;;;19.37;70.81
59513;BME280;45330;51.634;5.562;2023-07-08T00:20:35;101569.81;;;19.34;70.49
59513;BME280;45330;51.634;5.562;2023-07-08T00:23:02;101535.09;;;19.18;71.23
59513;BME280;45330;51.634;5.562;2023-07-08T00:25:28;101548.91;;;19.26;71.98
59513;BME280;45330;51.634;5.562;2023-07-08T00:27:54;101552.56;;;19.22;72.54
59513;BME280;45330;51.634;5.562;2023-07-08T00:30:24;101529.34;;;19.05;72.34
59513;BME280;45330;51.634;5.562;2023-07-08T00:32:50;101543.09;;;19.15;72.35
59513;BME280;45330;51.634;5.562;2023-07-08T00:35:53;101547.63;;;19.11;73.01
59513;BME280;45330;51.634;5.562;2023-07-08T00:40:50;101532.38;;;18.91;73.02
59513;BME280;45330;51.634;5.562;2023-07-08T00:43:16;101529.66;;;18.94;73.80
59513;BME280;45330;51.634;5.562;2023-07-08T00:45:47;101547.06;;;19.00;74.12
59513;BME280;45330;51.634;5.562;2023-07-08T00:48:24;101550.69;;;18.97;74.16
59513;BME280;45330;51.634;5.562;2023-07-08T00:50:51;101543.88;;;18.89;74.87
59513;BME280;45330;51.634;5.562;2023-07-08T00:53:33;101539.50;;;18.89;74.49
59513;BME280;45330;51.634;5.562;2023-07-08T00:56:13;101521.47;;;18.74;74.74
59513;BME280;45330;51.634;5.562;2023-07-08T00:58:47;101542.25;;;18.83;75.21
59513;BME280;45330;51.634;5.562;2023-07-08T01:01:15;101534.69;;;18.72;76.23
59513;BME280;45330;51.634;5.562;2023-07-08T01:04:28;101527.97;;;18.60;77.17
59513;BME280;45330;51.634;5.562;2023-07-08T01:06:34;101543.69;;;18.63;77.49
59513;BME280;45330;51.634;5.562;2023-07-08T01:09:06;101522.16;;;18.49;77.86
59513;BME280;45330;51.634;5.562;2023-07-08T01:11:33;101512.69;;;18.42;79.05
59513;BME280;45330;51.634;5.562;2023-07-08T01:14:01;101538.72;;;18.54;78.96
59513;BME280;45330;51.634;5.562;2023-07-08T01:16:28;101527.69;;;18.40;79.16
59513;BME280;45330;51.634;5.562;2023-07-08T01:18:54;101518.09;;;18.37;78.77
59513;BME280;45330;51.634;5.562;2023-07-08T01:24:01;101519.84;;;18.37;78.92
59513;BME280;45330;51.634;5.562;2023-07-08T01:26:29;101531.84;;;18.48;79.23
59513;BME280;45330;51.634;5.562;2023-07-08T01:28:56;101538.84;;;18.49;79.58
59513;BME280;45330;51.634;5.562;2023-07-08T01:31:22;101534.53;;;18.47;79.25
59513;BME280;45330;51.634;5.562;2023-07-08T01:33:48;101535.34;;;18.49;79.52
59513;BME280;45330;51.634;5.562;2023-07-08T01:36:16;101530.25;;;18.43;79.46
59513;BME280;45330;51.634;5.562;2023-07-08T01:38:42;101515.56;;;18.34;79.48
59513;BME280;45330;51.634;5.562;2023-07-08T01:41:12;101535.47;;;18.44;80.06
59513;BME280;45330;51.634;5.562;2023-07-08T01:43:38;101511.34;;;18.28;80.49
59513;BME280;45330;51.634;5.562;2023-07-08T01:46:11;101523.31;;;18.39;80.16
59513;BME280;45330;51.634;5.562;2023-07-08T01:48:40;101513.03;;;18.29;81.02
59513;BME280;45330;51.634;5.562;2023-07-08T01:51:07;101519.06;;;18.34;80.67
59513;BME280;45330;51.634;5.562;2023-07-08T01:53:38;101496.63;;;18.20;81.25
59513;BME280;45330;51.634;5.562;2023-07-08T01:56:05;101496.69;;;18.16;81.51
59513;BME280;45330;51.634;5.562;2023-07-08T01:58:30;101516.59;;;18.28;81.25
59513;BME280;45330;51.634;5.562;2023-07-08T02:00:56;101513.25;;;18.22;81.72
59513;BME280;45330;51.634;5.562;2023-07-08T02:03:22;101502.78;;;18.20;81.58
59513;BME280;45330;51.634;5.562;2023-07-08T02:05:47;101481.22;;;18.04;82.45
59513;BME280;45330;51.634;5.562;2023-07-08T02:08:13;101484.78;;;18.03;83.05
59513;BME280;45330;51.634;5.562;2023-07-08T02:10:41;101480.44;;;18.02;83.40
59513;BME280;45330;51.634;5.562;2023-07-08T02:13:06;101490.09;;;18.02;83.52
59513;BME280;45330;51.634;5.562;2023-07-08T02:15:32;101456.41;;;17.80;83.77
59513;BME280;45330;51.634;5.562;2023-07-08T02:17:57;101491.94;;;17.98;84.03
59513;BME280;45330;51.634;5.562;2023-07-08T02:20:23;101468.66;;;17.81;84.74
59513;BME280;45330;51.634;5.562;2023-07-08T02:22:48;101493.88;;;17.91;85.50
59513;BME280;45330;51.634;5.562;2023-07-08T02:25:14;101462.72;;;17.73;86.01
59513;BME280;45330;51.634;5.562;2023-07-08T02:27:39;101490.50;;;17.84;85.47
59513;BME280;45330;51.634;5.562;2023-07-08T02:30:05;101481.59;;;17.89;85.48
59513;BME280;45330;51.634;5.562;2023-07-08T02:32:31;101466.84;;;17.83;85.41
59513;BME280;45330;51.634;5.562;2023-07-08T02:35:00;101477.31;;;17.84;85.29
59513;BME280;45330;51.634;5.562;2023-07-08T02:37:25;101484.50;;;17.79;86.48
59513;BME280;45330;51.634;5.562;2023-07-08T02:39:51;101456.72;;;17.67;86.12
59513;BME280;45330;51.634;5.562;2023-07-08T02:42:16;101486.34;;;17.76;86.69
59513;BME280;45330;51.634;5.562;2023-07-08T02:44:42;101474.16;;;17.72;86.82
59513;BME280;45330;51.634;5.562;2023-07-08T02:47:07;101474.13;;;17.73;87.08
59513;BME280;45330;51.634;5.562;2023-07-08T02:49:32;101476.81;;;17.70;87.74
59513;BME280;45330;51.634;5.562;2023-07-08T02:51:58;101475.09;;;17.69;87.72
59513;BME280;45330;51.634;5.562;2023-07-08T02:54:24;101474.41;;;17.62;88.24
59513;BME280;45330;51.634;5.562;2023-07-08T02:56:49;101444.13;;;17.46;88.88
59513;BME280;45330;51.634;5.562;2023-07-08T02:59:14;101462.38;;;17.52;89.34
59513;BME280;45330;51.634;5.562;2023-07-08T03:01:40;101458.03;;;17.51;89.66
59513;BME280;45330;51.634;5.562;2023-07-08T03:04:09;101445.94;;;17.42;89.72
59513;BME280;45330;51.634;5.562;2023-07-08T03:06:43;101453.75;;;17.47;89.46
59513;BME280;45330;51.634;5.562;2023-07-08T03:09:10;101466.72;;;17.53;89.58
59513;BME280;45330;51.634;5.562;2023-07-08T03:11:37;101475.47;;;17.54;89.75
59513;BME280;45330;51.634;5.562;2023-07-08T03:14:03;101479.03;;;17.53;89.76
59513;BME280;45330;51.634;5.562;2023-07-08T03:16:31;101450.56;;;17.32;90.43
59513;BME280;45330;51.634;5.562;2023-07-08T03:18:57;101471.53;;;17.37;91.22
59513;BME280;45330;51.634;5.562;2023-07-08T03:21:22;101479.22;;;17.45;91.42
59513;BME280;45330;51.634;5.562;2023-07-08T03:23:49;101454.25;;;17.25;92.23
59513;BME280;45330;51.634;5.562;2023-07-08T03:26:16;101482.09;;;17.36;91.50
59513;BME280;45330;51.634;5.562;2023-07-08T03:28:42;101470.84;;;17.29;93.00
59513;BME280;45330;51.634;5.562;2023-07-08T03:31:09;101453.66;;;17.14;92.40
59513;BME280;45330;51.634;5.562;2023-07-08T03:33:35;101481.47;;;17.24;92.55
59513;BME280;45330;51.634;5.562;2023-07-08T03:36:02;101478.84;;;17.23;93.06
59513;BME280;45330;51.634;5.562;2023-07-08T03:38:27;101471.13;;;17.17;92.66
59513;BME280;45330;51.634;5.562;2023-07-08T03:40:52;101478.91;;;17.21;92.86
59513;BME280;45330;51.634;5.562;2023-07-08T03:43:18;101460.75;;;17.10;92.43
59513;BME280;45330;51.634;5.562;2023-07-08T03:45:44;101463.25;;;17.17;93.91
59513;BME280;45330;51.634;5.562;2023-07-08T03:48:12;101495.31;;;17.31;93.22
59513;BME280;45330;51.634;5.562;2023-07-08T03:50:38;101489.28;;;17.27;93.30
59513;BME280;45330;51.634;5.562;2023-07-08T03:53:04;101484.13;;;17.24;93.79
59513;BME280;45330;51.634;5.562;2023-07-08T03:55:29;101491.03;;;17.28;94.07
59513;BME280;45330;51.634;5.562;2023-07-08T03:57:55;101473.75;;;17.17;94.23
59513;BME280;45330;51.634;5.562;2023-07-08T04:00:20;101491.03;;;17.28;93.73
59513;BME280;45330;51.634;5.562;2023-07-08T04:02:46;101473.72;;;17.18;93.37
59513;BME280;45330;51.634;5.562;2023-07-08T04:05:18;101485.59;;;17.35;93.41
59513;BME280;45330;51.634;5.562;2023-07-08T04:07:44;101474.47;;;17.23;93.57
59513;BME280;45330;51.634;5.562;2023-07-08T04:10:10;101486.44;;;17.37;93.28
59513;BME280;45330;51.634;5.562;2023-07-08T04:12:36;101473.44;;;17.30;93.36
59513;BME280;45330;51.634;5.562;2023-07-08T04:15:03;101471.69;;;17.29;93.21
59513;BME280;45330;51.634;5.562;2023-07-08T04:17:28;101494.91;;;17.48;93.07
59513;BME280;45330;51.634;5.562;2023-07-08T04:19:54;101489.66;;;17.48;93.08
59513;BME280;45330;51.634;5.562;2023-07-08T04:22:22;101499.28;;;17.49;93.13
59513;BME280;45330;51.634;5.562;2023-07-08T04:24:47;101474.06;;;17.40;93.43
59513;BME280;45330;51.634;5.562;2023-07-08T04:27:14;101488.72;;;17.51;93.21
59513;BME280;45330;51.634;5.562;2023-07-08T04:29:41;101485.16;;;17.53;92.01
59513;BME280;45330;51.634;5.562;2023-07-08T04:32:07;101493.59;;;17.66;91.11
59513;BME280;45330;51.634;5.562;2023-07-08T04:34:32;101497.94;;;17.69;92.02
59513;BME280;45330;51.634;5.562;2023-07-08T04:36:58;101505.56;;;18.14;90.55
59513;BME280;45330;51.634;5.562;2023-07-08T04:39:23;101480.22;;;19.01;84.43
59513;BME280;45330;51.634;5.562;2023-07-08T04:41:48;101500.31;;;19.87;79.35
59513;BME280;45330;51.634;5.562;2023-07-08T04:44:14;101503.13;;;20.56;75.65
59513;BME280;45330;51.634;5.562;2023-07-08T04:46:46;101475.00;;;21.01;72.17
59513;BME280;45330;51.634;5.562;2023-07-08T04:49:12;101476.63;;;21.26;69.19
59513;BME280;45330;51.634;5.562;2023-07-08T04:51:41;101487.00;;;21.75;66.99
59513;BME280;45330;51.634;5.562;2023-07-08T04:54:07;101492.47;;;22.12;65.73
59513;BME280;45330;51.634;5.562;2023-07-08T04:56:37;101494.56;;;22.44;64.25
59513;BME280;45330;51.634;5.562;2023-07-08T04:59:03;101476.16;;;22.60;62.88
59513;BME280;45330;51.634;5.562;2023-07-08T05:01:28;101484.56;;;22.70;61.98
59513;BME280;45330;51.634;5.562;2023-07-08T05:03:54;101508.47;;;23.26;60.58
59513;BME280;45330;51.634;5.562;2023-07-08T05:06:20;101478.66;;;23.73;58.69
59513;BME280;45330;51.634;5.562;2023-07-08T05:08:45;101501.66;;;24.09;56.88
59513;BME280;45330;51.634;5.562;2023-07-08T05:11:10;101478.28;;;24.32;56.51
59513;BME280;45330;51.634;5.562;2023-07-08T05:13:36;101493.03;;;25.03;54.41
59513;BME280;45330;51.634;5.562;2023-07-08T05:16:01;101491.16;;;25.05;52.65
59513;BME280;45330;51.634;5.562;2023-07-08T05:18:27;101478.59;;;25.54;52.63
59513;BME280;45330;51.634;5.562;2023-07-08T05:20:52;101486.25;;;25.60;51.26
59513;BME280;45330;51.634;5.562;2023-07-08T05:23:20;101496.97;;;25.89;50.85
59513;BME280;45330;51.634;5.562;2023-07-08T05:25:45;101485.50;;;26.17;50.08
59513;BME280;45330;51.634;5.562;2023-07-08T05:28:11;101494.16;;;26.78;48.70
59513;BME280;45330;51.634;5.562;2023-07-08T05:30:36;101482.22;;;26.84;47.57
59513;BME280;45330;51.634;5.562;2023-07-08T05:33:04;101499.59;;;27.04;47.54
59513;BME280;45330;51.634;5.562;2023-07-08T05:35:30;101478.66;;;26.27;48.14
59513;BME280;45330;51.634;5.562;2023-07-08T05:37:55;101483.63;;;25.89;48.88
59513;BME280;45330;51.634;5.562;2023-07-08T05:40:20;101494.78;;;25.81;49.23
59513;BME280;45330;51.634;5.562;2023-07-08T05:42:46;101499.59;;;26.33;48.93
59513;BME280;45330;51.634;5.562;2023-07-08T05:45:11;101487.69;;;26.39;48.70
59513;BME280;45330;51.634;5.562;2023-07-08T05:47:37;101499.00;;;26.72;47.52
59513;BME280;45330;51.634;5.562;2023-07-08T05:50:03;101503.06;;;26.92;47.62
59513;BME280;45330;51.634;5.562;2023-07-08T05:52:28;101477.25;;;27.32;46.51
59513;BME280;45330;51.634;5.562;2023-07-08T05:54:54;101477.53;;;27.55;45.78
59513;BME280;45330;51.634;5.562;2023-07-08T05:57:20;101493.56;;;27.42;45.98
59513;BME280;45330;51.634;5.562;2023-07-08T05:59:45;101497.03;;;27.57;45.62
59513;BME280;45330;51.634;5.562;2023-07-08T06:02:12;101502.47;;;27.28;45.88
59513;BME280;45330;51.634;5.562;2023-07-08T06:04:39;101490.47;;;27.21;45.43
59513;BME280;45330;51.634;5.562;2023-07-08T06:07:04;101497.75;;;27.19;45.65
59513;BME280;45330;51.634;5.562;2023-07-08T06:09:30;101483.41;;;26.36;47.12
59513;BME280;45330;51.634;5.562;2023-07-08T06:11:55;101492.72;;;26.44;47.59
59513;BME280;45330;51.634;5.562;2023-07-08T06:14:21;101482.63;;;27.05;46.62
59513;BME280;45330;51.634;5.562;2023-07-08T06:16:46;101493.06;;;27.63;45.22
59513;BME280;45330;51.634;5.562;2023-07-08T06:19:12;101509.25;;;28.51;44.13
59513;BME280;45330;51.634;5.562;2023-07-08T06:21:40;101486.13;;;28.87;43.13
59513;BME280;45330;51.634;5.562;2023-07-08T06:24:05;101502.97;;;29.38;42.35
59513;BME280;45330;51.634;5.562;2023-07-08T06:26:31;101506.75;;;29.22;42.00
59513;BME280;45330;51.634;5.562;2023-07-08T06:28:56;101500.09;;;28.80;42.58
59513;BME280;45330;51.634;5.562;2023-07-08T06:31:22;101511.28;;;28.35;43.73
59513;BME280;45330;51.634;5.562;2023-07-08T06:33:47;101505.09;;;28.09;43.90
59513;BME280;45330;51.634;5.562;2023-07-08T06:36:13;101507.41;;;27.87;44.91
59513;BME280;45330;51.634;5.562;2023-07-08T06:38:38;101514.06;;;28.46;44.31
59513;BME280;45330;51.634;5.562;2023-07-08T06:41:03;101513.50;;;28.80;43.43
59513;BME280;45330;51.634;5.562;2023-07-08T06:43:29;101512.78;;;29.02;43.16
59513;BME280;45330;51.634;5.562;2023-07-08T06:45:54;101504.88;;;29.24;42.04
59513;BME280;45330;51.634;5.562;2023-07-08T06:48:19;101510.13;;;29.26;43.24
59513;BME280;45330;51.634;5.562;2023-07-08T06:50:48;101492.44;;;29.94;41.99
59513;BME280;45330;51.634;5.562;2023-07-08T06:53:15;101514.63;;;30.42;41.34
59513;BME280;45330;51.634;5.562;2023-07-08T06:55:40;101479.94;;;30.73;39.94
59513;BME280;45330;51.634;5.562;2023-07-08T06:58:06;101493.88;;;30.78;40.16
59513;BME280;45330;51.634;5.562;2023-07-08T07:00:31;101501.00;;;30.45;40.49
59513;BME280;45330;51.634;5.562;2023-07-08T07:02:57;101488.41;;;28.81;42.20
59513;BME280;45330;51.634;5.562;2023-07-08T07:05:22;101483.75;;;27.55;45.11
59513;BME280;45330;51.634;5.562;2023-07-08T07:07:47;101500.16;;;26.53;47.20
59513;BME280;45330;51.634;5.562;2023-07-08T07:10:13;101467.63;;;25.74;49.48
59513;BME280;45330;51.634;5.562;2023-07-08T07:12:38;101500.75;;;24.92;51.38
59513;BME280;45330;51.634;5.562;2023-07-08T07:15:04;101493.72;;;24.41;52.99
59513;BME280;45330;51.634;5.562;2023-07-08T07:17:30;101502.06;;;24.35;54.61
59513;BME280;45330;51.634;5.562;2023-07-08T07:19:55;101502.75;;;24.39;54.46
59513;BME280;45330;51.634;5.562;2023-07-08T07:22:21;101504.53;;;24.38;54.64
59513;BME280;45330;51.634;5.562;2023-07-08T07:24:46;101489.78;;;24.32;56.48
59513;BME280;45330;51.634;5.562;2023-07-08T07:27:12;101485.16;;;24.36;56.59
59513;BME280;45330;51.634;5.562;2023-07-08T07:29:43;101493.91;;;24.54;56.68
59513;BME280;45330;51.634;5.562;2023-07-08T07:32:09;101499.41;;;24.51;57.39
59513;BME280;45330;51.634;5.562;2023-07-08T07:34:35;101481.22;;;24.43;57.21
59513;BME280;45330;51.634;5.562;2023-07-08T07:37:00;101480.69;;;24.53;57.47
59513;BME280;45330;51.634;5.562;2023-07-08T07:39:26;101471.59;;;24.41;56.31
59513;BME280;45330;51.634;5.562;2023-07-08T07:41:51;101476.50;;;24.48;56.73
59513;BME280;45330;51.634;5.562;2023-07-08T07:44:16;101480.69;;;24.53;56.99
59513;BME280;45330;51.634;5.562;2023-07-08T07:46:42;101485.66;;;24.43;57.16
59513;BME280;45330;51.634;5.562;2023-07-08T07:49:07;101471.78;;;24.38;57.72
59513;BME280;45330;51.634;5.562;2023-07-08T07:51:32;101476.34;;;24.52;57.96
59513;BME280;45330;51.634;5.562;2023-07-08T07:53:58;101477.41;;;24.65;58.80
59513;BME280;45330;51.634;5.562;2023-07-08T07:56:23;101491.84;;;24.93;57.88
59513;BME280;45330;51.634;5.562;2023-07-08T07:58:48;101488.31;;;25.08;59.32
59513;BME280;45330;51.634;5.562;2023-07-08T08:01:14;101488.63;;;25.18;57.31
59513;BME280;45330;51.634;5.562;2023-07-08T08:03:40;101491.81;;;25.25;56.51
59513;BME280;45330;51.634;5.562;2023-07-08T08:06:06;101495.59;;;25.37;56.54
59513;BME280;45330;51.634;5.562;2023-07-08T08:08:31;101480.63;;;25.34;56.39
59513;BME280;45330;51.634;5.562;2023-07-08T08:10:56;101472.47;;;25.37;55.59
59513;BME280;45330;51.634;5.562;2023-07-08T08:13:22;101474.69;;;25.45;56.00
59513;BME280;45330;51.634;5.562;2023-07-08T08:15:47;101482.81;;;25.58;55.90
59513;BME280;45330;51.634;5.562;2023-07-08T08:18:13;101493.34;;;25.75;54.96
59513;BME280;45330;51.634;5.562;2023-07-08T08:20:38;101489.50;;;25.79;55.81
59513;BME280;45330;51.634;5.562;2023-07-08T08:23:04;101469.25;;;25.77;56.25
59513;BME280;45330;51.634;5.562;2023-07-08T08:25:31;101482.78;;;25.88;55.25
59513;BME280;45330;51.634;5.562;2023-07-08T08:27:57;101492.25;;;26.08;55.22
59513;BME280;45330;51.634;5.562;2023-07-08T08:30:22;101488.75;;;26.08;54.62
59513;BME280;45330;51.634;5.562;2023-07-08T08:32:47;101510.66;;;26.27;55.01
59513;BME280;45330;51.634;5.562;2023-07-08T08:35:13;101494.06;;;26.22;53.66
59513;BME280;45330;51.634;5.562;2023-07-08T08:37:38;101517.78;;;26.41;53.57
59513;BME280;45330;51.634;5.562;2023-07-08T08:40:04;101526.56;;;26.58;53.74
59513;BME280;45330;51.634;5.562;2023-07-08T08:42:34;101513.78;;;26.63;53.71
59513;BME280;45330;51.634;5.562;2023-07-08T08:45:01;101521.06;;;26.75;52.61
59513;BME280;45330;51.634;5.562;2023-07-08T08:47:37;101529.59;;;26.80;52.31
59513;BME280;45330;51.634;5.562;2023-07-08T08:52:38;101516.50;;;26.90;52.69
59513;BME280;45330;51.634;5.562;2023-07-08T08:55:15;101511.06;;;26.92;51.79
59513;BME280;45330;51.634;5.562;2023-07-08T08:58:02;101530.75;;;27.18;51.31
59513;BME280;45330;51.634;5.562;2023-07-08T09:03:16;101514.03;;;27.29;50.07
59513;BME280;45330;51.634;5.562;2023-07-08T09:05:45;101517.84;;;27.25;49.81
59513;BME280;45330;51.634;5.562;2023-07-08T09:08:33;101514.97;;;27.28;51.11
59513;BME280;45330;51.634;5.562;2023-07-08T09:13:37;101506.31;;;27.51;50.50
59513;BME280;45330;51.634;5.562;2023-07-08T09:16:14;101515.31;;;27.76;50.43
59513;BME280;45330;51.634;5.562;2023-07-08T09:18:56;101522.00;;;27.83;49.21
59513;BME280;45330;51.634;5.562;2023-07-08T09:21:34;101517.59;;;27.95;49.21
59513;BME280;45330;51.634;5.562;2023-07-08T09:24:07;101504.75;;;27.87;48.46
59513;BME280;45330;51.634;5.562;2023-07-08T09:26:33;101504.75;;;27.87;48.65
59513;BME280;45330;51.634;5.562;2023-07-08T09:28:59;101498.97;;;27.81;49.60
59513;BME280;45330;51.634;5.562;2023-07-08T09:31:27;101503.38;;;27.95;49.43
59513;BME280;45330;51.634;5.562;2023-07-08T09:34:05;101521.38;;;28.18;48.94
59513;BME280;45330;51.634;5.562;2023-07-08T09:36:30;101516.00;;;28.18;47.65
59513;BME280;45330;51.634;5.562;2023-07-08T09:38:56;101500.94;;;28.17;47.23
59513;BME280;45330;51.634;5.562;2023-07-08T09:41:33;101512.47;;;28.31;48.67
59513;BME280;45330;51.634;5.562;2023-07-08T09:46:43;101511.50;;;28.45;47.02
59513;BME280;45330;51.634;5.562;2023-07-08T09:49:24;101497.56;;;28.39;47.20
59513;BME280;45330;51.634;5.562;2023-07-08T09:51:52;101508.78;;;28.57;46.29
59513;BME280;45330;51.634;5.562;2023-07-08T09:54:20;101503.66;;;28.54;46.47
59513;BME280;45330;51.634;5.562;2023-07-08T09:56:54;101510.50;;;28.58;46.96
59513;BME280;45330;51.634;5.562;2023-07-08T09:59:23;101515.25;;;28.68;46.69
59513;BME280;45330;51.634;5.562;2023-07-08T10:01:49;101512.19;;;28.85;47.43
59513;BME280;45330;51.634;5.562;2023-07-08T10:04:19;101507.66;;;28.86;46.81
59513;BME280;45330;51.634;5.562;2023-07-08T10:06:44;101495.16;;;28.86;46.57
59513;BME280;45330;51.634;5.562;2023-07-08T10:09:14;101504.44;;;28.94;45.12
59513;BME280;45330;51.634;5.562;2023-07-08T10:11:48;101476.16;;;28.89;45.55
59513;BME280;45330;51.634;5.562;2023-07-08T10:14:29;101481.69;;;28.99;46.29
59513;BME280;45330;51.634;5.562;2023-07-08T10:16:57;101479.75;;;29.01;44.54
59513;BME280;45330;51.634;5.562;2023-07-08T10:19:22;101472.13;;;28.84;41.96
59513;BME280;45330;51.634;5.562;2023-07-08T10:21:55;101496.00;;;29.11;40.17
59513;BME280;45330;51.634;5.562;2023-07-08T10:29:59;101494.25;;;29.23;38.87
59513;BME280;45330;51.634;5.562;2023-07-08T10:43:00;101505.66;;;29.73;36.48
59513;BME280;45330;51.634;5.562;2023-07-08T10:45:38;101501.00;;;29.75;38.03
59513;BME280;45330;51.634;5.562;2023-07-08T11:02:08;101504.41;;;30.13;34.50
59513;BME280;45330;51.634;5.562;2023-07-08T11:07:27;101483.38;;;30.18;35.08
59513;BME280;45330;51.634;5.562;2023-07-08T11:09:57;101500.25;;;30.32;35.20
59513;BME280;45330;51.634;5.562;2023-07-08T11:12:33;101487.19;;;30.27;33.11
59513;BME280;45330;51.634;5.562;2023-07-08T11:15:18;101485.47;;;30.26;33.80
59513;BME280;45330;51.634;5.562;2023-07-08T11:18:01;101479.38;;;30.35;33.58
59513;BME280;45330;51.634;5.562;2023-07-08T11:20:34;101503.56;;;30.47;34.37
59513;BME280;45330;51.634;5.562;2023-07-08T11:23:05;101481.09;;;30.48;34.62
59513;BME280;45330;51.634;5.562;2023-07-08T11:25:33;101481.19;;;30.57;32.75
59513;BME280;45330;51.634;5.562;2023-07-08T11:28:04;101481.81;;;30.61;32.86
59513;BME280;45330;51.634;5.562;2023-07-08T11:30:32;101493.38;;;30.73;33.78
59513;BME280;45330;51.634;5.562;2023-07-08T11:33:05;101488.50;;;30.78;34.34
59513;BME280;45330;51.634;5.562;2023-07-08T11:35:47;101496.88;;;30.96;34.08
59513;BME280;45330;51.634;5.562;2023-07-08T11:38:19;101486.00;;;30.98;33.42
59513;BME280;45330;51.634;5.562;2023-07-08T11:43:16;101491.09;;;31.12;32.38
59513;BME280;45330;51.634;5.562;2023-07-08T11:45:42;101484.53;;;31.05;31.51
59513;BME280;45330;51.634;5.562;2023-07-08T11:48:22;101476.75;;;30.90;31.60
59513;BME280;45330;51.634;5.562;2023-07-08T11:50:50;101476.72;;;31.02;33.36
59513;BME280;45330;51.634;5.562;2023-07-08T11:56:02;101474.50;;;31.07;32.51
59513;BME280;45330;51.634;5.562;2023-07-08T11:58:32;101474.47;;;31.18;31.77
59513;BME280;45330;51.634;5.562;2023-07-08T12:01:05;101467.38;;;31.17;33.56
59513;BME280;45330;51.634;5.562;2023-07-08T12:03:48;101477.63;;;31.23;35.05
59513;BME280;45330;51.634;5.562;2023-07-08T12:08:57;101463.94;;;31.69;36.00
59513;BME280;45330;51.634;5.562;2023-07-08T12:11:33;101472.13;;;31.88;36.41
59513;BME280;45330;51.634;5.562;2023-07-08T12:14:01;101449.84;;;31.76;36.34
59513;BME280;45330;51.634;5.562;2023-07-08T12:16:29;101462.94;;;31.91;37.18
59513;BME280;45330;51.634;5.562;2023-07-08T12:18:55;101451.75;;;31.95;38.04
59513;BME280;45330;51.634;5.562;2023-07-08T12:21:23;101441.91;;;31.75;36.14
59513;BME280;45330;51.634;5.562;2023-07-08T12:23:51;101450.03;;;31.85;38.15
59513;BME280;45330;51.634;5.562;2023-07-08T12:26:16;101452.38;;;31.78;36.57
59513;BME280;45330;51.634;5.562;2023-07-08T12:28:42;101456.66;;;31.80;36.81
59513;BME280;45330;51.634;5.562;2023-07-08T12:31:18;101453.81;;;31.82;36.67
59513;BME280;45330;51.634;5.562;2023-07-08T12:33:45;101433.22;;;31.71;36.73
59513;BME280;45330;51.634;5.562;2023-07-08T12:36:16;101451.75;;;31.95;36.30
59513;BME280;45330;51.634;5.562;2023-07-08T12:38:44;101436.69;;;31.83;36.56
59513;BME280;45330;51.634;5.562;2023-07-08T12:41:16;101443.25;;;31.90;34.63
59513;BME280;45330;51.634;5.562;2023-07-08T12:43:42;101438.31;;;32.05;35.93
59513;BME280;45330;51.634;5.562;2023-07-08T12:46:11;101441.22;;;32.13;34.75
59513;BME280;45330;51.634;5.562;2023-07-08T12:48:39;101424.47;;;32.10;35.08
59513;BME280;45330;51.634;5.562;2023-07-08T12:51:06;101442.03;;;32.35;35.95
59513;BME280;45330;51.634;5.562;2023-07-08T12:53:35;101443.03;;;32.44;35.93
59513;BME280;45330;51.634;5.562;2023-07-08T12:56:01;101442.59;;;32.48;34.21
59513;BME280;45330;51.634;5.562;2023-07-08T12:58:34;101439.16;;;32.27;34.05
59513;BME280;45330;51.634;5.562;2023-07-08T13:01:04;101439.59;;;32.42;33.91
59513;BME280;45330;51.634;5.562;2023-07-08T13:03:34;101429.72;;;32.52;33.92
59513;BME280;45330;51.634;5.562;2023-07-08T13:06:01;101443.25;;;32.72;35.21
59513;BME280;45330;51.634;5.562;2023-07-08T13:08:30;101426.91;;;32.63;34.57
59513;BME280;45330;51.634;5.562;2023-07-08T13:10:59;101448.38;;;32.75;33.16
59513;BME280;45330;51.634;5.562;2023-07-08T13:13:28;101426.81;;;32.75;34.47
59513;BME280;45330;51.634;5.562;2023-07-08T13:15:55;101432.06;;;32.86;34.12
59513;BME280;45330;51.634;5.562;2023-07-08T13:18:34;101435.88;;;33.03;34.93
59513;BME280;45330;51.634;5.562;2023-07-08T13:21:01;101430.19;;;33.06;33.03
59513;BME280;45330;51.634;5.562;2023-07-08T13:23:28;101436.59;;;33.34;34.67
59513;BME280;45330;51.634;5.562;2023-07-08T13:25:54;101437.84;;;33.50;31.63
59513;BME280;45330;51.634;5.562;2023-07-08T13:28:29;101447.94;;;33.48;30.50
59513;BME280;45330;51.634;5.562;2023-07-08T13:31:02;101439.25;;;33.54;30.51
59513;BME280;45330;51.634;5.562;2023-07-08T13:33:33;101430.59;;;33.60;30.41
59513;BME280;45330;51.634;5.562;2023-07-08T13:36:04;101442.88;;;33.73;30.24
59513;BME280;45330;51.634;5.562;2023-07-08T13:38:35;101433.94;;;33.82;31.15
59513;BME280;45330;51.634;5.562;2023-07-08T13:41:05;101424.00;;;33.82;31.11
59513;BME280;45330;51.634;5.562;2023-07-08T13:43:35;101443.88;;;33.91;30.49
59513;BME280;45330;51.634;5.562;2023-07-08T13:46:02;101427.25;;;33.86;29.90
59513;BME280;45330;51.634;5.562;2023-07-08T13:48:37;101417.03;;;33.90;30.67
59513;BME280;45330;51.634;5.562;2023-07-08T13:51:16;101422.28;;;33.91;30.64